sensor_id;sensor_type;location;lat;lon;timestamp;P1;durP1;ratioP1;P2;durP2;ratioP2
29238;SDS011;16267;48.194;11.546;2023-01-06T00:00:32;1.95;;;1.35;;
29238;SDS011;16267;48.194;11.546;2023-01-06T00:02:59;1.17;;;0.98;;
29238;SDS011;16267;48.194;11.546;2023-01-06T00:05:24;1.75;;;1.23;;
29238;SDS011;16267;48.194;11.546;2023-01-06T00:07:51;5.45;;;1.30;;
29238;SDS011;16267;48.194;11.546;2023-01-06T00:10:17;1.48;;;1.02;;
29238;SDS011;16267;48.194;11.546;2023-01-06T00:12:44;1.85;;;1.25;;
29238;SDS011;16267;48.194;11.546;2023-01-06T00:15:11;1.15;;;0.95;;
29238;SDS011;16267;48.194;11.546;2023-01-06T00:17:38;1.33;;;1.00;;
29238;SDS011;16267;48.194;11.546;2023-01-06T00:20:04;2.70;;;1.30;;
29238;SDS011;16267;48.194;11.546;2023-01-06T00:22:31;1.83;;;1.10;;
29238;SDS011;16267;48.194;11.546;2023-01-06T00:24:57;2.38;;;1.08;;
29238;SDS011;16267;48.194;11.546;2023-01-06T00:27:22;2.65;;;1.30;;
29238;SDS011;16267;48.194;11.546;2023-01-06T00:29:48;1.58;;;1.10;;
29238;SDS011;16267;48.194;11.546;2023-01-06T00:32:15;4.55;;;1.20;;
29238;SDS011;16267;48.194;11.546;2023-01-06T00:34:42;3.05;;;1.73;;
29238;SDS011;16267;48.194;11.546;2023-01-06T00:37:08;3.25;;;1.40;;
29238;SDS011;16267;48.194;11.546;2023-01-06T00:39:34;2.63;;;1.35;;
29238;SDS011;16267;48.194;11.546;2023-01-06T00:42:00;2.72;;;1.48;;
29238;SDS011;16267;48.194;11.546;2023-01-06T00:44:32;2.28;;;1.40;;
29238;SDS011;16267;48.194;11.546;2023-01-06T00:47:02;2.70;;;1.58;;
29238;SDS011;16267;48.194;11.546;2023-01-06T00:49:32;2.33;;;1.50;;
29238;SDS011;16267;48.194;11.546;2023-01-06T00:51:57;3.80;;;1.70;;
29238;SDS011;16267;48.194;11.546;2023-01-06T00:54:23;3.20;;;1.60;;
29238;SDS011;16267;48.194;11.546;2023-01-06T00:56:51;2.63;;;1.58;;
29238;SDS011;16267;48.194;11.546;2023-01-06T00:59:19;2.50;;;1.40;;
29238;SDS011;16267;48.194;11.546;2023-01-06T01:01:50;3.50;;;1.58;;
29238;SDS011;16267;48.194;11.546;2023-01-06T01:04:20;2.85;;;1.60;;
29238;SDS011;16267;48.194;11.546;2023-01-06T01:06:47;3.00;;;2.08;;
29238;SDS011;16267;48.194;11.546;2023-01-06T01:09:15;2.83;;;1.73;;
29238;SDS011;16267;48.194;11.546;2023-01-06T01:11:47;4.07;;;1.73;;
29238;SDS011;16267;48.194;11.546;2023-01-06T01:14:32;5.00;;;1.70;;
29238;SDS011;16267;48.194;11.546;2023-01-06T01:16:58;3.58;;;2.05;;
29238;SDS011;16267;48.194;11.546;2023-01-06T01:19:24;4.18;;;2.03;;
29238;SDS011;16267;48.194;11.546;2023-01-06T01:21:54;4.10;;;2.20;;
29238;SDS011;16267;48.194;11.546;2023-01-06T01:24:21;4.00;;;1.55;;
29238;SDS011;16267;48.194;11.546;2023-01-06T01:26:47;2.38;;;1.58;;
29238;SDS011;16267;48.194;11.546;2023-01-06T01:29:15;2.97;;;1.60;;
29238;SDS011;16267;48.194;11.546;2023-01-06T01:31:43;3.40;;;1.60;;
29238;SDS011;16267;48.194;11.546;2023-01-06T01:34:09;1.60;;;1.13;;
29238;SDS011;16267;48.194;11.546;2023-01-06T01:36:38;1.92;;;1.00;;
29238;SDS011;16267;48.194;11.546;2023-01-06T01:39:06;2.78;;;1.42;;
29238;SDS011;16267;48.194;11.546;2023-01-06T01:41:32;1.40;;;1.20;;
29238;SDS011;16267;48.194;11.546;2023-01-06T01:43:59;2.78;;;1.30;;
29238;SDS011;16267;48.194;11.546;2023-01-06T01:46:47;2.92;;;1.38;;
29238;SDS011;16267;48.194;11.546;2023-01-06T01:49:14;3.70;;;1.30;;
29238;SDS011;16267;48.194;11.546;2023-01-06T01:51:45;2.20;;;1.30;;
29238;SDS011;16267;48.194;11.546;2023-01-06T01:54:14;1.88;;;1.10;;
29238;SDS011;16267;48.194;11.546;2023-01-06T01:56:49;2.50;;;1.30;;
29238;SDS011;16267;48.194;11.546;2023-01-06T01:59:30;3.80;;;1.20;;
29238;SDS011;16267;48.194;11.546;2023-01-06T02:01:58;1.98;;;1.23;;
29238;SDS011;16267;48.194;11.546;2023-01-06T02:04:24;3.15;;;1.33;;
29238;SDS011;16267;48.194;11.546;2023-01-06T02:06:52;3.58;;;1.23;;
29238;SDS011;16267;48.194;11.546;2023-01-06T02:12:30;4.25;;;1.25;;
29238;SDS011;16267;48.194;11.546;2023-01-06T02:14:56;2.80;;;1.10;;
29238;SDS011;16267;48.194;11.546;2023-01-06T02:17:36;2.72;;;1.00;;
29238;SDS011;16267;48.194;11.546;2023-01-06T02:26:01;2.15;;;1.33;;
29238;SDS011;16267;48.194;11.546;2023-01-06T02:29:17;1.65;;;1.25;;
29238;SDS011;16267;48.194;11.546;2023-01-06T02:32:13;1.67;;;1.13;;
29238;SDS011;16267;48.194;11.546;2023-01-06T02:52:13;2.08;;;1.10;;
29238;SDS011;16267;48.194;11.546;2023-01-06T02:55:27;1.40;;;0.80;;
29238;SDS011;16267;48.194;11.546;2023-01-06T02:58:05;1.08;;;0.70;;
29238;SDS011;16267;48.194;11.546;2023-01-06T03:01:21;1.55;;;0.95;;
29238;SDS011;16267;48.194;11.546;2023-01-06T03:04:03;1.27;;;0.98;;
29238;SDS011;16267;48.194;11.546;2023-01-06T03:06:35;1.20;;;0.90;;
29238;SDS011;16267;48.194;11.546;2023-01-06T03:09:08;3.70;;;1.05;;
29238;SDS011;16267;48.194;11.546;2023-01-06T03:11:38;1.20;;;0.90;;
29238;SDS011;16267;48.194;11.546;2023-01-06T03:16:48;1.58;;;1.08;;
29238;SDS011;16267;48.194;11.546;2023-01-06T03:19:13;1.60;;;1.00;;
29238;SDS011;16267;48.194;11.546;2023-01-06T03:21:41;2.00;;;1.20;;
29238;SDS011;16267;48.194;11.546;2023-01-06T03:24:10;2.40;;;1.13;;
29238;SDS011;16267;48.194;11.546;2023-01-06T03:26:37;1.50;;;0.95;;
29238;SDS011;16267;48.194;11.546;2023-01-06T03:29:05;1.30;;;0.80;;
29238;SDS011;16267;48.194;11.546;2023-01-06T03:31:46;2.85;;;0.85;;
29238;SDS011;16267;48.194;11.546;2023-01-06T03:37:25;1.88;;;1.00;;
29238;SDS011;16267;48.194;11.546;2023-01-06T03:42:51;1.50;;;1.10;;
29238;SDS011;16267;48.194;11.546;2023-01-06T03:49:16;2.20;;;1.00;;
29238;SDS011;16267;48.194;11.546;2023-01-06T03:54:41;1.48;;;0.90;;
29238;SDS011;16267;48.194;11.546;2023-01-06T03:57:55;4.15;;;0.98;;
29238;SDS011;16267;48.194;11.546;2023-01-06T04:00:21;2.35;;;0.90;;
29238;SDS011;16267;48.194;11.546;2023-01-06T04:02:52;1.70;;;1.08;;
29238;SDS011;16267;48.194;11.546;2023-01-06T04:05:19;3.20;;;0.90;;
29238;SDS011;16267;48.194;11.546;2023-01-06T04:07:50;2.73;;;1.17;;
29238;SDS011;16267;48.194;11.546;2023-01-06T04:10:17;2.42;;;1.10;;
29238;SDS011;16267;48.194;11.546;2023-01-06T04:12:44;4.85;;;1.02;;
29238;SDS011;16267;48.194;11.546;2023-01-06T04:15:11;2.08;;;0.90;;
29238;SDS011;16267;48.194;11.546;2023-01-06T04:17:46;2.30;;;0.93;;
29238;SDS011;16267;48.194;11.546;2023-01-06T04:20:13;1.42;;;0.85;;
29238;SDS011;16267;48.194;11.546;2023-01-06T04:22:45;2.85;;;0.82;;
29238;SDS011;16267;48.194;11.546;2023-01-06T04:25:11;1.60;;;0.88;;
29238;SDS011;16267;48.194;11.546;2023-01-06T04:27:37;1.98;;;1.00;;
29238;SDS011;16267;48.194;11.546;2023-01-06T04:30:04;2.45;;;0.60;;
29238;SDS011;16267;48.194;11.546;2023-01-06T04:32:31;1.67;;;0.82;;
29238;SDS011;16267;48.194;11.546;2023-01-06T04:34:56;1.90;;;1.02;;
29238;SDS011;16267;48.194;11.546;2023-01-06T04:37:22;2.28;;;1.20;;
29238;SDS011;16267;48.194;11.546;2023-01-06T04:39:48;1.98;;;1.10;;
29238;SDS011;16267;48.194;11.546;2023-01-06T04:42:14;1.15;;;0.80;;
29238;SDS011;16267;48.194;11.546;2023-01-06T04:44:40;1.85;;;0.98;;
29238;SDS011;16267;48.194;11.546;2023-01-06T04:47:06;1.70;;;1.02;;
29238;SDS011;16267;48.194;11.546;2023-01-06T04:49:33;2.10;;;1.00;;
29238;SDS011;16267;48.194;11.546;2023-01-06T04:51:59;1.55;;;1.10;;
29238;SDS011;16267;48.194;11.546;2023-01-06T04:54:25;1.67;;;0.90;;
29238;SDS011;16267;48.194;11.546;2023-01-06T04:56:51;2.13;;;0.95;;
29238;SDS011;16267;48.194;11.546;2023-01-06T04:59:16;1.20;;;0.90;;
29238;SDS011;16267;48.194;11.546;2023-01-06T05:01:42;2.85;;;1.00;;
29238;SDS011;16267;48.194;11.546;2023-01-06T05:04:08;1.85;;;1.17;;
29238;SDS011;16267;48.194;11.546;2023-01-06T05:06:34;1.65;;;0.90;;
29238;SDS011;16267;48.194;11.546;2023-01-06T05:09:00;2.28;;;1.30;;
29238;SDS011;16267;48.194;11.546;2023-01-06T05:11:26;3.83;;;1.40;;
29238;SDS011;16267;48.194;11.546;2023-01-06T05:13:52;2.25;;;1.30;;
29238;SDS011;16267;48.194;11.546;2023-01-06T05:16:19;3.05;;;1.67;;
29238;SDS011;16267;48.194;11.546;2023-01-06T05:18:51;2.22;;;1.27;;
29238;SDS011;16267;48.194;11.546;2023-01-06T05:21:17;2.75;;;1.45;;
29238;SDS011;16267;48.194;11.546;2023-01-06T05:23:44;1.50;;;0.90;;
29238;SDS011;16267;48.194;11.546;2023-01-06T05:26:14;2.72;;;1.42;;
29238;SDS011;16267;48.194;11.546;2023-01-06T05:28:43;1.88;;;1.20;;
29238;SDS011;16267;48.194;11.546;2023-01-06T05:31:09;1.85;;;1.20;;
29238;SDS011;16267;48.194;11.546;2023-01-06T05:33:36;2.30;;;0.90;;
29238;SDS011;16267;48.194;11.546;2023-01-06T05:36:03;1.65;;;0.95;;
29238;SDS011;16267;48.194;11.546;2023-01-06T05:38:32;1.73;;;1.10;;
29238;SDS011;16267;48.194;11.546;2023-01-06T05:40:58;2.80;;;1.00;;
29238;SDS011;16267;48.194;11.546;2023-01-06T05:43:24;3.05;;;1.23;;
29238;SDS011;16267;48.194;11.546;2023-01-06T05:45:52;3.88;;;1.02;;
29238;SDS011;16267;48.194;11.546;2023-01-06T05:48:19;3.03;;;1.20;;
29238;SDS011;16267;48.194;11.546;2023-01-06T05:50:50;3.45;;;0.88;;
29238;SDS011;16267;48.194;11.546;2023-01-06T05:53:16;1.75;;;1.10;;
29238;SDS011;16267;48.194;11.546;2023-01-06T05:55:42;3.17;;;0.73;;
29238;SDS011;16267;48.194;11.546;2023-01-06T05:58:08;1.58;;;0.90;;
29238;SDS011;16267;48.194;11.546;2023-01-06T06:00:33;1.50;;;0.90;;
29238;SDS011;16267;48.194;11.546;2023-01-06T06:02:59;1.60;;;0.73;;
29238;SDS011;16267;48.194;11.546;2023-01-06T06:05:25;0.60;;;0.60;;
29238;SDS011;16267;48.194;11.546;2023-01-06T06:07:54;1.48;;;0.80;;
29238;SDS011;16267;48.194;11.546;2023-01-06T06:10:21;1.63;;;0.93;;
29238;SDS011;16267;48.194;11.546;2023-01-06T06:12:49;1.40;;;0.70;;
29238;SDS011;16267;48.194;11.546;2023-01-06T06:15:16;1.00;;;0.68;;
29238;SDS011;16267;48.194;11.546;2023-01-06T06:17:43;0.95;;;0.60;;
29238;SDS011;16267;48.194;11.546;2023-01-06T06:20:09;2.22;;;1.05;;
29238;SDS011;16267;48.194;11.546;2023-01-06T06:22:34;1.77;;;0.98;;
29238;SDS011;16267;48.194;11.546;2023-01-06T06:25:00;0.90;;;0.60;;
29238;SDS011;16267;48.194;11.546;2023-01-06T06:27:26;2.15;;;0.90;;
29238;SDS011;16267;48.194;11.546;2023-01-06T06:29:52;1.40;;;0.77;;
29238;SDS011;16267;48.194;11.546;2023-01-06T06:32:18;1.08;;;0.60;;
29238;SDS011;16267;48.194;11.546;2023-01-06T06:34:44;1.35;;;0.70;;
29238;SDS011;16267;48.194;11.546;2023-01-06T06:37:09;4.00;;;0.75;;
29238;SDS011;16267;48.194;11.546;2023-01-06T06:39:35;1.05;;;0.80;;
29238;SDS011;16267;48.194;11.546;2023-01-06T06:42:01;1.30;;;0.80;;
29238;SDS011;16267;48.194;11.546;2023-01-06T06:44:27;2.53;;;1.02;;
29238;SDS011;16267;48.194;11.546;2023-01-06T06:46:52;2.58;;;0.60;;
29238;SDS011;16267;48.194;11.546;2023-01-06T06:49:18;1.15;;;0.60;;
29238;SDS011;16267;48.194;11.546;2023-01-06T06:51:44;1.08;;;0.50;;
29238;SDS011;16267;48.194;11.546;2023-01-06T06:54:11;1.63;;;0.70;;
29238;SDS011;16267;48.194;11.546;2023-01-06T06:56:38;2.17;;;0.82;;
29238;SDS011;16267;48.194;11.546;2023-01-06T06:59:03;1.15;;;0.80;;
29238;SDS011;16267;48.194;11.546;2023-01-06T07:01:30;1.58;;;0.70;;
29238;SDS011;16267;48.194;11.546;2023-01-06T07:03:56;0.90;;;0.55;;
29238;SDS011;16267;48.194;11.546;2023-01-06T07:06:22;1.80;;;0.80;;
29238;SDS011;16267;48.194;11.546;2023-01-06T07:08:51;1.95;;;0.70;;
29238;SDS011;16267;48.194;11.546;2023-01-06T07:11:17;1.33;;;0.73;;
29238;SDS011;16267;48.194;11.546;2023-01-06T07:13:44;4.28;;;0.90;;
29238;SDS011;16267;48.194;11.546;2023-01-06T07:16:11;0.70;;;0.63;;
29238;SDS011;16267;48.194;11.546;2023-01-06T07:18:37;2.95;;;0.70;;
29238;SDS011;16267;48.194;11.546;2023-01-06T07:21:07;1.30;;;0.80;;
29238;SDS011;16267;48.194;11.546;2023-01-06T07:23:33;0.57;;;0.57;;
29238;SDS011;16267;48.194;11.546;2023-01-06T07:26:00;1.00;;;0.50;;
29238;SDS011;16267;48.194;11.546;2023-01-06T07:28:27;1.70;;;0.60;;
29238;SDS011;16267;48.194;11.546;2023-01-06T07:30:55;3.03;;;0.60;;
29238;SDS011;16267;48.194;11.546;2023-01-06T07:33:20;1.35;;;0.60;;
29238;SDS011;16267;48.194;11.546;2023-01-06T07:35:51;1.05;;;0.60;;
29238;SDS011;16267;48.194;11.546;2023-01-06T07:38:21;1.58;;;0.85;;
29238;SDS011;16267;48.194;11.546;2023-01-06T07:40:47;0.85;;;0.60;;
29238;SDS011;16267;48.194;11.546;2023-01-06T07:43:13;0.80;;;0.60;;
29238;SDS011;16267;48.194;11.546;2023-01-06T07:45:51;1.65;;;0.52;;
29238;SDS011;16267;48.194;11.546;2023-01-06T07:48:17;0.82;;;0.50;;
29238;SDS011;16267;48.194;11.546;2023-01-06T07:50:43;1.77;;;0.52;;
29238;SDS011;16267;48.194;11.546;2023-01-06T07:53:09;0.50;;;0.30;;
29238;SDS011;16267;48.194;11.546;2023-01-06T07:55:35;1.05;;;0.63;;
29238;SDS011;16267;48.194;11.546;2023-01-06T07:58:05;1.05;;;0.73;;
29238;SDS011;16267;48.194;11.546;2023-01-06T08:00:32;2.00;;;0.70;;
29238;SDS011;16267;48.194;11.546;2023-01-06T08:03:01;1.90;;;0.60;;
29238;SDS011;16267;48.194;11.546;2023-01-06T08:05:29;1.90;;;0.50;;
29238;SDS011;16267;48.194;11.546;2023-01-06T08:07:55;0.75;;;0.60;;
29238;SDS011;16267;48.194;11.546;2023-01-06T08:10:21;2.65;;;0.50;;
29238;SDS011;16267;48.194;11.546;2023-01-06T08:12:47;1.17;;;0.60;;
29238;SDS011;16267;48.194;11.546;2023-01-06T08:15:12;1.58;;;0.70;;
29238;SDS011;16267;48.194;11.546;2023-01-06T08:17:38;1.65;;;0.47;;
29238;SDS011;16267;48.194;11.546;2023-01-06T08:20:04;0.98;;;0.50;;
29238;SDS011;16267;48.194;11.546;2023-01-06T08:22:30;1.77;;;0.65;;
29238;SDS011;16267;48.194;11.546;2023-01-06T08:24:56;1.05;;;0.63;;
29238;SDS011;16267;48.194;11.546;2023-01-06T08:27:25;2.08;;;0.70;;
29238;SDS011;16267;48.194;11.546;2023-01-06T08:29:51;0.90;;;0.70;;
29238;SDS011;16267;48.194;11.546;2023-01-06T08:32:19;2.55;;;0.82;;
29238;SDS011;16267;48.194;11.546;2023-01-06T08:34:45;2.25;;;0.85;;
29238;SDS011;16267;48.194;11.546;2023-01-06T08:37:12;1.83;;;1.00;;
29238;SDS011;16267;48.194;11.546;2023-01-06T08:39:38;2.15;;;0.85;;
29238;SDS011;16267;48.194;11.546;2023-01-06T08:42:04;2.55;;;1.20;;
29238;SDS011;16267;48.194;11.546;2023-01-06T08:44:30;3.78;;;1.00;;
29238;SDS011;16267;48.194;11.546;2023-01-06T08:46:55;1.92;;;1.20;;
29238;SDS011;16267;48.194;11.546;2023-01-06T08:49:21;2.50;;;1.05;;
29238;SDS011;16267;48.194;11.546;2023-01-06T08:51:47;1.30;;;0.85;;
29238;SDS011;16267;48.194;11.546;2023-01-06T08:54:13;3.08;;;0.77;;
29238;SDS011;16267;48.194;11.546;2023-01-06T08:56:39;1.30;;;0.70;;
29238;SDS011;16267;48.194;11.546;2023-01-06T08:59:09;1.50;;;0.70;;
29238;SDS011;16267;48.194;11.546;2023-01-06T09:01:39;1.10;;;0.73;;
29238;SDS011;16267;48.194;11.546;2023-01-06T09:04:06;1.58;;;0.85;;
29238;SDS011;16267;48.194;11.546;2023-01-06T09:06:33;1.15;;;0.70;;
29238;SDS011;16267;48.194;11.546;2023-01-06T09:09:00;1.27;;;0.80;;
29238;SDS011;16267;48.194;11.546;2023-01-06T09:11:28;1.40;;;0.90;;
29238;SDS011;16267;48.194;11.546;2023-01-06T09:13:54;1.45;;;1.25;;
29238;SDS011;16267;48.194;11.546;2023-01-06T09:16:20;1.42;;;0.80;;
29238;SDS011;16267;48.194;11.546;2023-01-06T09:18:46;1.33;;;0.95;;
29238;SDS011;16267;48.194;11.546;2023-01-06T09:21:14;1.80;;;0.70;;
29238;SDS011;16267;48.194;11.546;2023-01-06T09:23:46;0.90;;;0.57;;
29238;SDS011;16267;48.194;11.546;2023-01-06T09:26:13;1.50;;;0.65;;
29238;SDS011;16267;48.194;11.546;2023-01-06T09:28:41;1.50;;;0.70;;
29238;SDS011;16267;48.194;11.546;2023-01-06T09:31:07;0.88;;;0.50;;
29238;SDS011;16267;48.194;11.546;2023-01-06T09:33:34;1.38;;;0.65;;
29238;SDS011;16267;48.194;11.546;2023-01-06T09:36:01;1.52;;;0.57;;
29238;SDS011;16267;48.194;11.546;2023-01-06T09:38:30;0.93;;;0.50;;
29238;SDS011;16267;48.194;11.546;2023-01-06T09:41:16;0.93;;;0.50;;
29238;SDS011;16267;48.194;11.546;2023-01-06T09:44:03;2.78;;;0.70;;
29238;SDS011;16267;48.194;11.546;2023-01-06T09:46:47;1.60;;;0.80;;
29238;SDS011;16267;48.194;11.546;2023-01-06T09:49:35;3.15;;;0.70;;
29238;SDS011;16267;48.194;11.546;2023-01-06T09:52:18;1.02;;;0.70;;
29238;SDS011;16267;48.194;11.546;2023-01-06T09:55:25;1.38;;;0.80;;
29238;SDS011;16267;48.194;11.546;2023-01-06T09:58:30;2.75;;;0.80;;
29238;SDS011;16267;48.194;11.546;2023-01-06T10:00:56;1.48;;;1.00;;
29238;SDS011;16267;48.194;11.546;2023-01-06T10:03:30;1.25;;;0.82;;
29238;SDS011;16267;48.194;11.546;2023-01-06T10:18:10;0.60;;;0.60;;
29238;SDS011;16267;48.194;11.546;2023-01-06T10:26:42;1.45;;;0.75;;
29238;SDS011;16267;48.194;11.546;2023-01-06T10:29:18;1.45;;;0.80;;
29238;SDS011;16267;48.194;11.546;2023-01-06T10:31:46;1.38;;;1.00;;
29238;SDS011;16267;48.194;11.546;2023-01-06T10:34:21;1.88;;;1.13;;
29238;SDS011;16267;48.194;11.546;2023-01-06T10:37:00;1.75;;;1.10;;
29238;SDS011;16267;48.194;11.546;2023-01-06T10:39:52;1.77;;;1.27;;
29238;SDS011;16267;48.194;11.546;2023-01-06T10:42:38;1.40;;;1.00;;
29238;SDS011;16267;48.194;11.546;2023-01-06T10:45:37;1.80;;;1.00;;
29238;SDS011;16267;48.194;11.546;2023-01-06T10:48:18;1.77;;;1.20;;
29238;SDS011;16267;48.194;11.546;2023-01-06T10:50:49;1.40;;;1.00;;
29238;SDS011;16267;48.194;11.546;2023-01-06T10:53:15;2.63;;;1.10;;
29238;SDS011;16267;48.194;11.546;2023-01-06T10:55:57;1.15;;;1.02;;
29238;SDS011;16267;48.194;11.546;2023-01-06T11:03:40;1.27;;;0.98;;
29238;SDS011;16267;48.194;11.546;2023-01-06T11:12:24;1.85;;;1.23;;
29238;SDS011;16267;48.194;11.546;2023-01-06T11:14:59;1.50;;;1.20;;
29238;SDS011;16267;48.194;11.546;2023-01-06T11:17:29;1.73;;;1.15;;
29238;SDS011;16267;48.194;11.546;2023-01-06T11:20:25;1.73;;;1.10;;
29238;SDS011;16267;48.194;11.546;2023-01-06T11:28:52;2.67;;;1.30;;
29238;SDS011;16267;48.194;11.546;2023-01-06T11:31:20;3.50;;;2.15;;
29238;SDS011;16267;48.194;11.546;2023-01-06T11:33:53;4.70;;;1.75;;
29238;SDS011;16267;48.194;11.546;2023-01-06T11:36:22;2.13;;;1.80;;
29238;SDS011;16267;48.194;11.546;2023-01-06T11:41:38;2.92;;;2.28;;
29238;SDS011;16267;48.194;11.546;2023-01-06T11:46:36;4.50;;;3.00;;
29238;SDS011;16267;48.194;11.546;2023-01-06T11:49:13;3.80;;;3.00;;
29238;SDS011;16267;48.194;11.546;2023-01-06T11:51:46;11.77;;;4.28;;
29238;SDS011;16267;48.194;11.546;2023-01-06T11:57:25;4.28;;;3.15;;
29238;SDS011;16267;48.194;11.546;2023-01-06T12:00:11;5.63;;;3.63;;
29238;SDS011;16267;48.194;11.546;2023-01-06T12:11:48;4.57;;;3.03;;
29238;SDS011;16267;48.194;11.546;2023-01-06T12:14:24;3.33;;;2.88;;
29238;SDS011;16267;48.194;11.546;2023-01-06T12:20:04;3.22;;;2.80;;
29238;SDS011;16267;48.194;11.546;2023-01-06T12:25:23;2.75;;;2.30;;
29238;SDS011;16267;48.194;11.546;2023-01-06T12:28:06;3.22;;;2.20;;
29238;SDS011;16267;48.194;11.546;2023-01-06T12:48:38;2.15;;;1.95;;
29238;SDS011;16267;48.194;11.546;2023-01-06T12:53:54;3.08;;;1.80;;
29238;SDS011;16267;48.194;11.546;2023-01-06T12:56:42;2.38;;;2.03;;
29238;SDS011;16267;48.194;11.546;2023-01-06T12:59:45;2.03;;;1.52;;
29238;SDS011;16267;48.194;11.546;2023-01-06T13:14:30;1.30;;;1.00;;
29238;SDS011;16267;48.194;11.546;2023-01-06T13:17:40;10.00;;;0.90;;
29238;SDS011;16267;48.194;11.546;2023-01-06T13:20:20;1.38;;;0.80;;
29238;SDS011;16267;48.194;11.546;2023-01-06T13:35:17;1.17;;;0.90;;
29238;SDS011;16267;48.194;11.546;2023-01-06T13:37:48;1.60;;;1.17;;
29238;SDS011;16267;48.194;11.546;2023-01-06T13:40:57;4.45;;;0.80;;
29238;SDS011;16267;48.194;11.546;2023-01-06T13:43:29;1.60;;;0.98;;
29238;SDS011;16267;48.194;11.546;2023-01-06T13:45:59;1.83;;;0.88;;
29238;SDS011;16267;48.194;11.546;2023-01-06T13:48:32;1.20;;;0.80;;
29238;SDS011;16267;48.194;11.546;2023-01-06T13:51:03;2.60;;;0.95;;
29238;SDS011;16267;48.194;11.546;2023-01-06T13:53:35;1.65;;;0.90;;
29238;SDS011;16267;48.194;11.546;2023-01-06T13:58:38;0.98;;;0.65;;
29238;SDS011;16267;48.194;11.546;2023-01-06T14:03:43;1.35;;;0.82;;
29238;SDS011;16267;48.194;11.546;2023-01-06T14:08:53;0.93;;;0.80;;
29238;SDS011;16267;48.194;11.546;2023-01-06T14:13:58;1.10;;;0.77;;
29238;SDS011;16267;48.194;11.546;2023-01-06T14:16:39;4.93;;;1.10;;
29238;SDS011;16267;48.194;11.546;2023-01-06T14:19:19;1.17;;;0.73;;
29238;SDS011;16267;48.194;11.546;2023-01-06T14:24:52;0.98;;;0.70;;
29238;SDS011;16267;48.194;11.546;2023-01-06T14:33:21;1.08;;;0.90;;
29238;SDS011;16267;48.194;11.546;2023-01-06T14:36:13;2.03;;;1.38;;
29238;SDS011;16267;48.194;11.546;2023-01-06T14:38:45;0.85;;;0.80;;
29238;SDS011;16267;48.194;11.546;2023-01-06T14:44:18;1.20;;;0.80;;
29238;SDS011;16267;48.194;11.546;2023-01-06T14:46:58;1.00;;;0.82;;
29238;SDS011;16267;48.194;11.546;2023-01-06T14:49:30;1.88;;;0.90;;
29238;SDS011;16267;48.194;11.546;2023-01-06T14:52:06;0.93;;;0.70;;
29238;SDS011;16267;48.194;11.546;2023-01-06T14:54:44;2.22;;;1.15;;
29238;SDS011;16267;48.194;11.546;2023-01-06T14:57:23;1.35;;;1.10;;
29238;SDS011;16267;48.194;11.546;2023-01-06T15:00:17;1.15;;;0.70;;
29238;SDS011;16267;48.194;11.546;2023-01-06T15:03:03;0.95;;;0.68;;
29238;SDS011;16267;48.194;11.546;2023-01-06T15:05:42;1.70;;;0.70;;
29238;SDS011;16267;48.194;11.546;2023-01-06T15:10:35;1.10;;;0.80;;
29238;SDS011;16267;48.194;11.546;2023-01-06T15:13:21;1.10;;;0.82;;
29238;SDS011;16267;48.194;11.546;2023-01-06T15:16:16;0.75;;;0.70;;
29238;SDS011;16267;48.194;11.546;2023-01-06T15:18:58;1.10;;;0.60;;
29238;SDS011;16267;48.194;11.546;2023-01-06T15:21:38;1.05;;;0.60;;
29238;SDS011;16267;48.194;11.546;2023-01-06T15:26:48;1.45;;;0.93;;
29238;SDS011;16267;48.194;11.546;2023-01-06T15:29:18;1.30;;;0.80;;
29238;SDS011;16267;48.194;11.546;2023-01-06T15:31:47;1.85;;;1.00;;
29238;SDS011;16267;48.194;11.546;2023-01-06T15:34:19;1.55;;;0.98;;
29238;SDS011;16267;48.194;11.546;2023-01-06T15:37:04;4.53;;;2.60;;
29238;SDS011;16267;48.194;11.546;2023-01-06T15:39:33;2.40;;;1.60;;
29238;SDS011;16267;48.194;11.546;2023-01-06T15:42:00;2.17;;;1.50;;
29238;SDS011;16267;48.194;11.546;2023-01-06T15:44:31;2.45;;;1.60;;
29238;SDS011;16267;48.194;11.546;2023-01-06T15:49:40;1.58;;;1.20;;
29238;SDS011;16267;48.194;11.546;2023-01-06T15:54:48;1.30;;;0.80;;
29238;SDS011;16267;48.194;11.546;2023-01-06T15:57:16;2.75;;;1.30;;
29238;SDS011;16267;48.194;11.546;2023-01-06T15:59:49;2.42;;;1.10;;
29238;SDS011;16267;48.194;11.546;2023-01-06T16:02:48;1.00;;;0.80;;
29238;SDS011;16267;48.194;11.546;2023-01-06T16:08:11;1.23;;;0.90;;
29238;SDS011;16267;48.194;11.546;2023-01-06T16:11:37;1.40;;;1.10;;
29238;SDS011;16267;48.194;11.546;2023-01-06T16:13:41;1.80;;;1.25;;
29238;SDS011;16267;48.194;11.546;2023-01-06T16:18:53;1.55;;;0.80;;
29238;SDS011;16267;48.194;11.546;2023-01-06T16:21:29;2.60;;;1.55;;
29238;SDS011;16267;48.194;11.546;2023-01-06T16:23:56;1.00;;;0.80;;
29238;SDS011;16267;48.194;11.546;2023-01-06T16:27:03;1.42;;;1.10;;
29238;SDS011;16267;48.194;11.546;2023-01-06T16:29:28;6.35;;;2.38;;
29238;SDS011;16267;48.194;11.546;2023-01-06T16:31:58;1.77;;;1.13;;
29238;SDS011;16267;48.194;11.546;2023-01-06T16:34:47;2.65;;;1.60;;
29238;SDS011;16267;48.194;11.546;2023-01-06T16:37:15;4.05;;;1.40;;
29238;SDS011;16267;48.194;11.546;2023-01-06T16:39:41;2.95;;;1.73;;
29238;SDS011;16267;48.194;11.546;2023-01-06T16:45:01;4.25;;;1.33;;
29238;SDS011;16267;48.194;11.546;2023-01-06T16:47:38;2.20;;;1.48;;
29238;SDS011;16267;48.194;11.546;2023-01-06T16:50:10;2.75;;;1.73;;
29238;SDS011;16267;48.194;11.546;2023-01-06T16:53:21;2.85;;;1.13;;
29238;SDS011;16267;48.194;11.546;2023-01-06T16:55:42;2.92;;;1.70;;
29238;SDS011;16267;48.194;11.546;2023-01-06T16:58:27;2.08;;;1.63;;
29238;SDS011;16267;48.194;11.546;2023-01-06T17:00:57;2.55;;;1.58;;
29238;SDS011;16267;48.194;11.546;2023-01-06T17:03:34;2.70;;;1.73;;
29238;SDS011;16267;48.194;11.546;2023-01-06T17:06:01;3.08;;;1.50;;
29238;SDS011;16267;48.194;11.546;2023-01-06T17:08:28;2.53;;;1.50;;
29238;SDS011;16267;48.194;11.546;2023-01-06T17:10:59;3.08;;;1.55;;
29238;SDS011;16267;48.194;11.546;2023-01-06T17:13:31;1.75;;;0.90;;
29238;SDS011;16267;48.194;11.546;2023-01-06T17:18:34;2.50;;;1.70;;
29238;SDS011;16267;48.194;11.546;2023-01-06T17:21:14;2.92;;;1.70;;
29238;SDS011;16267;48.194;11.546;2023-01-06T17:26:15;3.00;;;1.98;;
29238;SDS011;16267;48.194;11.546;2023-01-06T17:28:44;4.32;;;1.75;;
29238;SDS011;16267;48.194;11.546;2023-01-06T17:31:16;2.97;;;1.90;;
29238;SDS011;16267;48.194;11.546;2023-01-06T17:33:50;2.85;;;1.75;;
29238;SDS011;16267;48.194;11.546;2023-01-06T17:36:23;3.45;;;1.80;;
29238;SDS011;16267;48.194;11.546;2023-01-06T17:38:58;2.60;;;1.90;;
29238;SDS011;16267;48.194;11.546;2023-01-06T17:41:37;3.75;;;2.30;;
29238;SDS011;16267;48.194;11.546;2023-01-06T17:44:08;3.20;;;2.05;;
29238;SDS011;16267;48.194;11.546;2023-01-06T17:46:42;4.93;;;2.45;;
29238;SDS011;16267;48.194;11.546;2023-01-06T17:51:43;3.25;;;2.10;;
29238;SDS011;16267;48.194;11.546;2023-01-06T17:54:28;3.20;;;1.75;;
29238;SDS011;16267;48.194;11.546;2023-01-06T17:59:44;3.22;;;1.80;;
29238;SDS011;16267;48.194;11.546;2023-01-06T18:10:38;2.75;;;1.67;;
29238;SDS011;16267;48.194;11.546;2023-01-06T18:13:25;3.67;;;1.80;;
29238;SDS011;16267;48.194;11.546;2023-01-06T18:15:59;2.03;;;1.60;;
29238;SDS011;16267;48.194;11.546;2023-01-06T18:18:27;3.10;;;1.60;;
29238;SDS011;16267;48.194;11.546;2023-01-06T18:23:38;2.80;;;2.05;;
29238;SDS011;16267;48.194;11.546;2023-01-06T18:28:52;2.67;;;1.85;;
29238;SDS011;16267;48.194;11.546;2023-01-06T18:31:21;2.35;;;1.73;;